aviador You're here:

K2C8 Decoded Metar

in
Report Time2017-08-19 14:55:00
UTC Time2017-08-19 15:01:58
Flight Rules vfr VFR
Wind190° at 06 kt
W.Rank190° ranks 8
Current wind is below 190° avg. (8.1)
Visibility9999 m
Phenomena:N/A
Clouds:N/A
Expected CloudBase > 2,800 ft AGL from Temp-Dew spread
CeilingNone
Temp23°C
Dew Point16°C (65% RH)
AAT22.8°C
QNH1008 hPa
Raw Report
K2C8 191455Z AUTO 19006KT 9SM CLR 23/16 A2978 RMK AO2=

Extra information for K2C8:More info

Social comments